Airfield :







YOU CAN JOIN US ON...

 
LOGIN :

Register | Disclaimer

   EN    FR    IT 

 









Legend :    VFR   Marginal VFR   IFR   Intensive IFR   Very Intensive IFR
Visi :
Ceiling :
>= 8 km
>= 3000ft
5 to 8 km
1000 to 3000 ft
1500m to 5 km
500 to 1000 ft
800 to 1500m
200 to 500 ft
< 800m
< 200 ft
Symbols :   Thunderstorms  Fog  Heavy snow  Heavy precipitations  Wind > 20 kt







- Airport Elevation : 133 ft
- IATA code : BED


KBED - Laurence G Hanscom Field

CURRENT METAR :
  • 201751Z 30007KT 10SM FEW250 27/08 A3012 RMK AO2 SLP209 T02670083 10267 20083 56019

EXPIRED METARs :
  • 201651Z 30007KT 10SM CLR 25/07 A3013 RMK AO2 SLP217 T02500072
  • 201551Z 33009KT 10SM FEW250 24/08 A3015 RMK AO2 SLP223 T02440083

TAF KBED
Valid from the 20 at 18:00 until the 21 at 18:00 UTC


201735Z 2018/2118 31006KT P6SM FEW250
FM210000 VRB03KT P6SM FEW250
FM211400 35004KT P6SM SKC
No reported NOTAMs for that airfield.



MET'MAP, your aeronautical weather chart ! - Copyright ORBIFLY December 2007 - Disclaimer

ORBIFLY MET'MAP TEAM :

Programming & Development : Alexandra Zaïnal
Concept & Development : Baudouin d'Aumeries
Co-Development & Prog : Marc-Olivier Méhu
Technical & hardware support : Manuel Goepfert

Contact : metmap@orbifly.com




SOURCES & CREDITS :

   NOAA